Carleton Place, Canada
Current Conditions -  °F | °C
As of 4:00 AM on Friday 24 Oct 2014 (Local Time) from CYOW Reporting Station
Broken Clouds Broken Clouds  
Wind Chill: 43°   Ceiling: 11000
Heat Index: 43°   Visibility: 15mi
Dew Point: 41°   Wind: 3mph
Humidity: 93%   Direction: 240°WSW
Pressure: 29.93"   Gusts: NA
Location:  45.13°N, 76.13°W
Report Text: CYOW 240800Z 24003KT 15SM FEW060 BKN110 06/05 A2993 RMK SC2AC3 SLP138
Loading
Personal Weather Stations






























Interactive Weather Map
Tropical Storm Tracking
New forecast layout! Learn more

10-Day Weather Forecast

Advertisements
Track Severe Weather on mobile